Airfield :
LOGIN :

Register | Disclaimer

   EN    FR    IT 

 










Legend :    VFR   Marginal VFR   IFR   Intensive IFR   Very Intensive IFR
Visi :
Ceiling :
>= 8 km
>= 3000ft
5 to 8 km
1000 to 3000 ft
1500m to 5 km
500 to 1000 ft
800 to 1500m
200 to 500 ft
< 800m
< 200 ft
Symbols :   Thunderstorms  Fog  Heavy snow  Heavy precipitations  Wind > 20 kt
SIGMETs :     Misc.  Thunderstorms  Icing  Turbulence  Mountain Waves  Volcanic Ashes






- Airport Elevation : 53 ft
- IATA code : AGP


LEMG - Malaga

CURRENT METAR :
  • 162130Z 28011KT CAVOK 29/11 Q1009 NOSIG

EXPIRED METARs :
  • 162100Z 28010KT CAVOK 29/12 Q1009 NOSIG
  • 162030Z 29010KT CAVOK 30/11 Q1009 NOSIG
  • 162000Z 29009KT 260V320 CAVOK 30/09 Q1008 NOSIG
  • 161930Z 29010KT CAVOK 31/09 Q1008 NOSIG
  • 161900Z 29010KT 260V320 CAVOK 32/08 Q1007 NOSIG
  • 161830Z 30011KT CAVOK 33/07 Q1007 NOSIG

TAF TAF LEMG
Valid from the 16 at 18:00 until the 17 at 18:00 UTC


161700Z 1618/1718 30012KT CAVOK TX34/1714Z TN24/1705Z
PROB30
TEMPO 1702/1707 28015G25KT



MET'MAP, your aeronautical weather chart ! - Copyright ORBIFLY December 2007 - Disclaimer

ORBIFLY MET'MAP TEAM :

Programming & Development : Alexandra Zaïnal
Original concept : Baudouin d'Aumeries
Technical & hardware support : Manuel Goepfert
Assistance : Marc-Olivier Méhu




SOURCES & CREDITS :

   NOAA